createdAt,value
2022-10-19T00:01:03.844Z,15.57
2022-10-19T00:03:31.132Z,21.73
2022-10-19T00:05:58.052Z,20.75
2022-10-19T00:08:24.702Z,21.92
2022-10-19T00:10:51.390Z,24.10
2022-10-19T00:13:18.024Z,22.52
2022-10-19T00:15:45.314Z,18.58
2022-10-19T00:18:12.005Z,17.77
2022-10-19T00:20:38.623Z,15.50
2022-10-19T00:23:05.216Z,14.50
2022-10-19T00:25:32.051Z,16.88
2022-10-19T00:27:58.613Z,11.98
2022-10-19T00:30:25.370Z,12.60
2022-10-19T00:32:51.915Z,13.40
2022-10-19T00:35:18.439Z,13.07
2022-10-19T00:37:45.086Z,11.68
2022-10-19T00:40:11.873Z,14.20
2022-10-19T00:42:38.446Z,14.32
2022-10-19T00:45:14.861Z,15.75
2022-10-19T00:47:43.401Z,13.18
2022-10-19T00:50:12.602Z,13.48
2022-10-19T00:52:39.196Z,15.57
2022-10-19T00:55:07.670Z,12.90
2022-10-19T00:57:35.070Z,15.13
2022-10-19T01:00:05.166Z,12.02
2022-10-19T01:02:32.165Z,9.63
2022-10-19T01:04:59.604Z,16.45
2022-10-19T01:07:26.919Z,12.07
2022-10-19T01:09:54.389Z,10.57
2022-10-19T01:12:46.039Z,9.82
2022-10-19T01:15:22.556Z,10.07
2022-10-19T01:18:22.339Z,9.15
2022-10-19T01:20:48.867Z,14.20
2022-10-19T01:23:31.252Z,6.80
2022-10-19T01:26:16.341Z,11.27
2022-10-19T01:28:51.418Z,8.80
2022-10-19T01:31:40.869Z,8.07
2022-10-19T01:34:34.541Z,12.93
2022-10-19T01:37:01.079Z,7.88
2022-10-19T01:40:03.597Z,7.18
2022-10-19T01:45:32.285Z,10.27
2022-10-19T01:48:05.596Z,9.52
2022-10-19T01:50:41.071Z,9.15
2022-10-19T01:53:10.474Z,9.23
2022-10-19T01:55:42.778Z,12.88
2022-10-19T01:58:13.657Z,18.15
2022-10-19T02:00:45.225Z,15.13
2022-10-19T02:03:13.243Z,17.08
2022-10-19T02:05:41.933Z,13.85
2022-10-19T02:08:14.816Z,14.27
2022-10-19T02:10:43.649Z,10.77
2022-10-19T02:13:13.766Z,13.13
2022-10-19T02:15:44.041Z,11.25
2022-10-19T02:18:15.373Z,10.45
2022-10-19T02:20:42.252Z,12.75
2022-10-19T02:23:09.661Z,12.68
2022-10-19T02:25:36.895Z,14.85
2022-10-19T02:28:04.815Z,17.05
2022-10-19T02:30:31.588Z,15.10
2022-10-19T02:32:58.132Z,16.40
2022-10-19T02:35:24.745Z,13.70
2022-10-19T02:37:51.667Z,14.40
2022-10-19T02:40:18.543Z,14.68
2022-10-19T02:42:51.156Z,12.80
2022-10-19T02:45:23.793Z,8.73
2022-10-19T02:47:58.323Z,11.13
2022-10-19T02:50:25.241Z,11.32
2022-10-19T02:52:51.836Z,10.55
2022-10-19T02:55:18.647Z,8.02
2022-10-19T02:57:45.465Z,11.13
2022-10-19T03:00:12.353Z,9.82
2022-10-19T03:02:39.038Z,8.70
2022-10-19T03:05:06.016Z,8.30
2022-10-19T03:07:32.858Z,11.52
2022-10-19T03:09:59.821Z,11.15
2022-10-19T03:12:26.348Z,11.60
2022-10-19T03:14:52.987Z,11.18
2022-10-19T03:17:19.753Z,12.50
2022-10-19T03:19:46.420Z,14.75
2022-10-19T03:22:14.569Z,12.02
2022-10-19T03:24:41.339Z,12.95
2022-10-19T03:27:07.884Z,18.02
2022-10-19T03:29:34.469Z,13.10
2022-10-19T03:32:01.038Z,12.82
2022-10-19T03:34:27.573Z,18.73
2022-10-19T03:36:54.309Z,16.13
2022-10-19T03:39:20.880Z,27.13
2022-10-19T03:41:47.449Z,19.55
2022-10-19T03:44:14.074Z,18.25
2022-10-19T03:46:40.866Z,21.73
2022-10-19T03:49:08.220Z,20.98
2022-10-19T03:51:35.824Z,18.58
2022-10-19T03:54:05.775Z,16.00
2022-10-19T03:56:35.080Z,19.40
2022-10-19T03:59:03.534Z,13.15
2022-10-19T04:01:39.189Z,15.70
2022-10-19T04:04:16.982Z,11.13
2022-10-19T04:06:45.437Z,9.68
2022-10-19T04:09:15.625Z,14.68
2022-10-19T04:11:42.812Z,20.42
2022-10-19T04:14:18.941Z,19.58
2022-10-19T04:16:53.713Z,21.23
2022-10-19T04:19:20.307Z,19.20
2022-10-19T04:21:49.053Z,26.90
2022-10-19T04:24:18.668Z,17.50
2022-10-19T04:26:50.891Z,25.05
2022-10-19T04:29:19.245Z,55.25
2022-10-19T04:31:46.278Z,49.78
2022-10-19T04:34:12.833Z,42.47
2022-10-19T04:36:39.604Z,24.48
2022-10-19T04:39:07.149Z,20.42
2022-10-19T04:41:34.387Z,24.40
2022-10-19T04:44:03.416Z,16.85
2022-10-19T04:46:30.734Z,17.35
2022-10-19T04:48:57.904Z,12.63
2022-10-19T04:51:25.493Z,21.05
2022-10-19T04:53:55.592Z,20.80
2022-10-19T04:56:29.283Z,31.05
2022-10-19T04:59:00.096Z,28.45
2022-10-19T05:01:28.597Z,35.17
2022-10-19T05:06:24.219Z,25.60
2022-10-19T05:08:51.169Z,24.30
2022-10-19T05:11:18.959Z,25.83
2022-10-19T05:13:46.240Z,30.50
2022-10-19T05:16:19.532Z,35.35
2022-10-19T05:21:28.870Z,28.15
2022-10-19T05:23:56.813Z,27.92
2022-10-19T05:26:26.277Z,22.55
2022-10-19T05:28:59.447Z,17.88
2022-10-19T05:33:54.094Z,61.08
2022-10-19T05:36:20.777Z,52.28
2022-10-19T05:38:49.811Z,61.67
2022-10-19T05:41:17.367Z,56.10
2022-10-19T05:43:45.905Z,49.53
2022-10-19T05:46:17.546Z,33.65
2022-10-19T05:48:45.085Z,25.40
2022-10-19T05:51:15.061Z,17.30
2022-10-19T05:53:42.113Z,12.90
2022-10-19T05:56:12.571Z,13.90
2022-10-19T05:58:39.221Z,15.63
2022-10-19T06:01:06.086Z,25.92
2022-10-19T06:03:32.727Z,17.17
2022-10-19T06:06:06.036Z,22.77
2022-10-19T06:08:33.043Z,25.05
2022-10-19T06:11:14.202Z,18.20
2022-10-19T06:13:42.466Z,23.00
2022-10-19T06:16:10.988Z,19.85
2022-10-19T06:18:38.118Z,17.58
2022-10-19T06:21:07.385Z,32.42
2022-10-19T06:23:35.546Z,23.58
2022-10-19T06:26:03.871Z,28.80
2022-10-19T06:28:30.521Z,29.98
2022-10-19T06:31:00.548Z,43.47
2022-10-19T06:33:28.522Z,27.58
2022-10-19T06:35:55.068Z,20.58
2022-10-19T06:38:22.056Z,19.60
2022-10-19T06:40:49.256Z,23.98
2022-10-19T06:43:16.265Z,22.20
2022-10-19T06:45:42.841Z,36.65
2022-10-19T06:48:09.483Z,25.42
2022-10-19T06:50:36.099Z,26.23
2022-10-19T06:53:02.756Z,13.88
2022-10-19T06:55:29.470Z,13.15
2022-10-19T06:57:56.070Z,11.85
2022-10-19T07:00:22.670Z,13.57
2022-10-19T07:02:49.227Z,14.18
2022-10-19T07:05:16.054Z,12.02
2022-10-19T07:07:42.633Z,9.32
2022-10-19T07:10:09.450Z,11.20
2022-10-19T07:12:36.068Z,14.73
2022-10-19T07:15:02.969Z,14.90
2022-10-19T07:17:29.647Z,10.68
2022-10-19T07:19:56.313Z,10.02
2022-10-19T07:22:27.830Z,11.27
2022-10-19T07:24:54.834Z,14.05
2022-10-19T07:27:21.441Z,10.05
2022-10-19T07:29:48.029Z,11.00
2022-10-19T07:32:14.623Z,11.88
2022-10-19T07:34:41.272Z,8.45
2022-10-19T07:37:07.848Z,8.50
2022-10-19T07:39:34.444Z,7.80
2022-10-19T07:42:01.069Z,9.35
2022-10-19T07:44:27.968Z,10.13
2022-10-19T07:46:54.622Z,12.30
2022-10-19T07:49:21.827Z,11.50
2022-10-19T07:51:48.937Z,16.75
2022-10-19T07:54:15.536Z,7.20
2022-10-19T07:56:42.113Z,8.13
2022-10-19T07:59:10.331Z,6.47
2022-10-19T08:01:41.620Z,9.40
2022-10-19T08:06:55.189Z,9.55
2022-10-19T08:09:51.634Z,5.70
2022-10-19T08:12:12.470Z,7.22
2022-10-19T08:14:41.776Z,11.93
2022-10-19T08:17:11.586Z,8.57
2022-10-19T08:19:43.353Z,8.75
2022-10-19T08:22:10.732Z,6.32
2022-10-19T08:24:37.552Z,6.82
2022-10-19T08:27:04.409Z,9.95
2022-10-19T08:29:31.738Z,8.63
2022-10-19T08:31:58.734Z,5.15
2022-10-19T08:34:25.501Z,6.18
2022-10-19T08:36:52.208Z,5.95
2022-10-19T08:39:18.809Z,6.65
2022-10-19T08:42:13.367Z,8.75
2022-10-19T08:44:52.187Z,6.05
2022-10-19T08:47:50.109Z,8.63
2022-10-19T08:50:20.227Z,7.85
2022-10-19T08:52:54.187Z,6.80
2022-10-19T08:55:29.303Z,8.98
2022-10-19T08:58:14.256Z,11.88
2022-10-19T09:00:49.405Z,7.55
2022-10-19T09:03:37.544Z,6.82
2022-10-19T09:06:44.637Z,7.70
2022-10-19T09:09:14.033Z,6.50
2022-10-19T09:11:47.393Z,4.82
2022-10-19T09:14:36.502Z,6.57
2022-10-19T09:17:11.400Z,8.95
2022-10-19T09:19:37.988Z,12.30
2022-10-19T09:22:29.607Z,9.18
2022-10-19T09:25:05.797Z,10.00
2022-10-19T09:27:39.741Z,6.72
2022-10-19T09:30:28.049Z,8.73
2022-10-19T09:33:06.267Z,5.75
2022-10-19T09:35:38.967Z,4.35
2022-10-19T09:38:07.412Z,5.13
2022-10-19T09:40:35.510Z,7.68
2022-10-19T09:43:19.256Z,3.90
2022-10-19T09:48:53.887Z,9.23
2022-10-19T09:51:21.336Z,6.35
2022-10-19T09:53:52.016Z,8.13
2022-10-19T09:56:28.312Z,6.93
2022-10-19T09:58:57.839Z,5.88
2022-10-19T10:01:41.822Z,10.88
2022-10-19T10:04:15.261Z,14.50
2022-10-19T10:06:44.395Z,10.43
2022-10-19T10:09:19.856Z,7.50
2022-10-19T10:11:49.637Z,5.32
2022-10-19T10:14:36.517Z,6.78
2022-10-19T10:17:06.914Z,3.65
2022-10-19T10:19:36.291Z,6.75
2022-10-19T10:22:04.294Z,4.60
2022-10-19T10:24:33.534Z,6.10
2022-10-19T10:27:02.767Z,5.38
2022-10-19T10:29:37.724Z,5.30
2022-10-19T10:32:19.462Z,5.00
2022-10-19T10:35:07.684Z,6.47
2022-10-19T10:37:47.304Z,4.90
2022-10-19T10:40:32.462Z,5.63
2022-10-19T10:43:06.260Z,4.65
2022-10-19T10:45:38.951Z,3.20
2022-10-19T10:48:24.058Z,5.80
2022-10-19T10:50:52.208Z,5.78
2022-10-19T10:53:43.446Z,6.20
2022-10-19T10:56:33.427Z,4.63
2022-10-19T10:59:26.588Z,3.30
2022-10-19T11:01:59.250Z,9.33
2022-10-19T11:04:32.419Z,6.03
2022-10-19T11:07:07.509Z,10.05
2022-10-19T11:09:38.421Z,8.27
2022-10-19T11:12:12.453Z,4.93
2022-10-19T11:14:57.962Z,3.75
2022-10-19T11:17:36.852Z,10.82
2022-10-19T11:20:08.249Z,7.35
2022-10-19T11:22:49.062Z,9.23
2022-10-19T11:25:15.653Z,7.05
2022-10-19T11:28:07.021Z,6.93
2022-10-19T11:30:56.507Z,5.68
2022-10-19T11:33:40.956Z,6.25
2022-10-19T11:36:19.585Z,4.07
2022-10-19T11:39:09.849Z,5.40
2022-10-19T11:41:50.210Z,5.72
2022-10-19T11:44:37.053Z,3.80
2022-10-19T11:47:15.762Z,3.35
2022-10-19T11:49:59.558Z,6.00
2022-10-19T11:55:13.322Z,8.55
2022-10-19T11:57:56.512Z,8.30
2022-10-19T12:00:39.796Z,4.78
2022-10-19T12:03:29.302Z,4.90
2022-10-19T12:06:30.798Z,4.90
2022-10-19T12:09:21.034Z,4.03
2022-10-19T12:12:19.720Z,5.45
2022-10-19T12:14:51.483Z,4.95
2022-10-19T12:17:27.480Z,4.78
2022-10-19T12:19:58.949Z,4.80
2022-10-19T12:22:29.978Z,5.63
2022-10-19T12:25:00.383Z,6.88
2022-10-19T12:27:35.093Z,3.42
2022-10-19T12:30:09.066Z,4.70
2022-10-19T12:32:54.305Z,7.10
2022-10-19T12:35:58.469Z,4.22
2022-10-19T12:39:02.581Z,5.97
2022-10-19T12:42:24.816Z,5.10
2022-10-19T12:45:10.598Z,9.82
2022-10-19T12:47:37.516Z,7.85
2022-10-19T12:50:05.566Z,4.57
2022-10-19T12:52:52.347Z,2.97
2022-10-19T12:55:24.874Z,5.70
2022-10-19T12:58:06.293Z,4.13
2022-10-19T13:00:37.690Z,4.05
2022-10-19T13:03:25.140Z,5.20
2022-10-19T13:06:07.529Z,3.35
2022-10-19T13:08:43.338Z,5.57
2022-10-19T13:11:15.478Z,4.93
2022-10-19T13:14:04.191Z,4.03
2022-10-19T13:16:36.733Z,5.20
2022-10-19T13:19:18.422Z,6.47
2022-10-19T13:21:59.683Z,6.95
2022-10-19T13:24:26.205Z,10.10
2022-10-19T13:27:05.102Z,7.18
2022-10-19T13:29:40.614Z,8.38
2022-10-19T13:32:37.879Z,6.07
2022-10-19T13:35:34.378Z,9.18
2022-10-19T13:38:12.971Z,5.63
2022-10-19T13:41:05.053Z,5.00
2022-10-19T13:43:50.648Z,6.68
2022-10-19T13:46:34.337Z,7.05
2022-10-19T13:49:09.641Z,5.45
2022-10-19T13:51:41.599Z,4.50
2022-10-19T13:54:33.015Z,8.43
2022-10-19T13:57:11.439Z,5.88
2022-10-19T14:00:09.464Z,7.82
2022-10-19T14:02:54.307Z,7.88
2022-10-19T14:05:47.458Z,3.33
2022-10-19T14:08:29.233Z,4.87
2022-10-19T14:11:01.339Z,4.93
2022-10-19T14:13:28.946Z,5.18
2022-10-19T14:15:57.354Z,4.95
2022-10-19T14:18:36.506Z,8.40
2022-10-19T14:21:08.094Z,4.05
2022-10-19T14:23:38.101Z,7.63
2022-10-19T14:26:18.776Z,10.13
2022-10-19T14:28:45.673Z,6.50
2022-10-19T14:31:21.695Z,6.18
2022-10-19T14:33:52.149Z,4.72
2022-10-19T14:36:21.284Z,9.43
2022-10-19T14:38:50.238Z,11.50
2022-10-19T14:41:28.708Z,7.07
2022-10-19T14:43:56.727Z,7.18
2022-10-19T14:46:34.211Z,5.25
2022-10-19T14:49:03.878Z,7.90
2022-10-19T14:51:41.602Z,5.43
2022-10-19T14:54:15.991Z,5.35
2022-10-19T14:56:51.069Z,3.92
2022-10-19T14:59:22.433Z,10.63
2022-10-19T15:01:55.599Z,31.10
2022-10-19T15:04:26.610Z,161.70
2022-10-19T15:06:54.446Z,54.42
2022-10-19T15:09:47.395Z,15.13
2022-10-19T15:12:18.323Z,29.63
2022-10-19T15:14:46.113Z,21.67
2022-10-19T15:17:49.803Z,85.80
2022-10-19T15:20:30.207Z,28.35
2022-10-19T15:22:58.645Z,22.05
2022-10-19T15:25:37.181Z,18.73
2022-10-19T15:28:21.948Z,30.05
2022-10-19T15:30:59.690Z,28.40
2022-10-19T15:33:26.838Z,25.38
2022-10-19T15:36:06.922Z,11.93
2022-10-19T15:38:34.842Z,14.40
2022-10-19T15:41:04.006Z,11.75
2022-10-19T15:43:30.594Z,13.82
2022-10-19T15:46:06.642Z,12.38
2022-10-19T15:48:42.027Z,13.20
2022-10-19T15:51:33.068Z,10.20
2022-10-19T15:54:05.336Z,19.20
2022-10-19T15:56:35.165Z,20.85
2022-10-19T15:59:05.754Z,16.67
2022-10-19T16:01:33.362Z,15.75
2022-10-19T16:04:00.690Z,26.40
2022-10-19T16:06:30.483Z,22.05
2022-10-19T16:08:58.661Z,23.98
2022-10-19T16:11:26.036Z,30.90
2022-10-19T16:13:52.917Z,24.42
2022-10-19T16:16:23.837Z,24.90
2022-10-19T16:18:50.600Z,23.08
2022-10-19T16:21:18.590Z,22.48
2022-10-19T16:23:45.883Z,26.27
2022-10-19T16:26:16.914Z,22.42
2022-10-19T16:28:55.677Z,17.20
2022-10-19T16:31:23.267Z,10.68
2022-10-19T16:33:49.944Z,41.47
2022-10-19T16:36:20.199Z,28.35
2022-10-19T16:38:47.471Z,24.65
2022-10-19T16:41:14.715Z,25.08
2022-10-19T16:43:41.286Z,41.67
2022-10-19T16:46:08.563Z,30.33
2022-10-19T16:48:35.415Z,22.50
2022-10-19T16:51:07.940Z,23.42
2022-10-19T16:53:35.287Z,17.13
2022-10-19T16:56:11.078Z,20.85
2022-10-19T16:58:38.989Z,24.67
2022-10-19T17:18:44.712Z,30.38
2022-10-19T17:21:22.390Z,23.35
2022-10-19T17:23:52.848Z,25.60
2022-10-19T17:26:19.963Z,23.90
2022-10-19T17:28:46.667Z,30.35
2022-10-19T17:31:14.105Z,26.48
2022-10-19T17:33:41.560Z,26.77
2022-10-19T17:36:18.953Z,27.13
2022-10-19T17:38:46.353Z,23.80
2022-10-19T17:41:15.726Z,21.55
2022-10-19T17:43:43.878Z,11.23
2022-10-19T17:46:12.470Z,9.07
2022-10-19T17:48:40.946Z,9.05
2022-10-19T17:51:11.383Z,13.15
2022-10-19T17:53:38.500Z,10.65
2022-10-19T17:56:07.837Z,25.20
2022-10-19T17:58:39.045Z,25.08
2022-10-19T18:01:09.490Z,16.55
2022-10-19T18:03:37.703Z,12.07
2022-10-19T18:06:10.889Z,11.95
2022-10-19T18:11:12.217Z,36.55
2022-10-19T18:13:39.852Z,31.15
2022-10-19T18:16:10.627Z,36.60
2022-10-19T18:18:40.381Z,32.70
2022-10-19T18:21:12.568Z,33.78
2022-10-19T18:23:40.038Z,21.38
2022-10-19T18:26:13.537Z,18.25
2022-10-19T18:31:15.418Z,16.25
2022-10-19T18:33:42.571Z,9.43
2022-10-19T18:36:10.882Z,12.73
2022-10-19T18:38:38.512Z,13.77
2022-10-19T18:43:41.467Z,16.23
2022-10-19T18:46:09.204Z,16.20
2022-10-19T18:48:37.786Z,19.85
2022-10-19T18:51:07.383Z,19.27
2022-10-19T18:53:35.205Z,24.10
2022-10-19T18:56:07.444Z,24.58
2022-10-19T18:58:35.297Z,31.02
2022-10-19T19:01:17.059Z,28.10
2022-10-19T19:03:46.481Z,21.85
2022-10-19T19:06:22.154Z,23.27
2022-10-19T19:08:48.874Z,26.75
2022-10-19T19:11:20.982Z,18.30
2022-10-19T19:13:53.601Z,16.90
2022-10-19T19:16:21.060Z,19.13
2022-10-19T19:18:47.738Z,9.27
2022-10-19T19:21:18.531Z,30.08
2022-10-19T19:23:46.144Z,31.35
2022-10-19T19:26:14.181Z,22.90
2022-10-19T19:28:42.870Z,17.23
2022-10-19T19:31:12.851Z,17.65
2022-10-19T19:33:39.394Z,11.95
2022-10-19T19:36:07.698Z,18.10
2022-10-19T19:38:35.582Z,22.77
2022-10-19T19:41:07.817Z,20.48
2022-10-19T19:43:37.108Z,27.15
2022-10-19T19:46:08.971Z,20.95
2022-10-19T19:48:37.222Z,17.98
2022-10-19T19:51:04.046Z,22.25
2022-10-19T19:53:31.319Z,17.67
2022-10-19T19:55:57.906Z,20.13
2022-10-19T19:58:24.531Z,20.17
2022-10-19T20:00:51.123Z,17.30
2022-10-19T20:03:17.684Z,17.58
2022-10-19T20:05:44.508Z,17.60
2022-10-19T20:08:11.409Z,16.95
2022-10-19T20:10:39.416Z,19.95
2022-10-19T20:13:06.101Z,17.13
2022-10-19T20:15:32.670Z,15.82
2022-10-19T20:17:59.302Z,23.65
2022-10-19T20:20:25.870Z,23.98
2022-10-19T20:22:52.438Z,18.10
2022-10-19T20:25:19.151Z,18.30
2022-10-19T20:27:45.747Z,15.48
2022-10-19T20:30:12.358Z,13.93
2022-10-19T20:32:39.127Z,13.52
2022-10-19T20:35:07.491Z,14.93
2022-10-19T20:37:34.381Z,15.82
2022-10-19T20:40:03.387Z,12.38
2022-10-19T20:42:34.252Z,12.90
2022-10-19T20:45:00.999Z,16.92
2022-10-19T20:47:27.732Z,12.75
2022-10-19T20:49:54.309Z,9.57
2022-10-19T20:52:20.891Z,11.00
2022-10-19T20:54:48.705Z,10.98
2022-10-19T20:57:15.342Z,13.13
2022-10-19T20:59:43.858Z,10.48
2022-10-19T21:02:11.543Z,9.13
2022-10-19T21:04:38.212Z,7.75
2022-10-19T21:07:05.149Z,8.63
2022-10-19T21:09:32.095Z,6.90
2022-10-19T21:12:01.170Z,10.23
2022-10-19T21:14:29.575Z,12.80
2022-10-19T21:17:00.381Z,12.10
2022-10-19T21:19:28.871Z,11.80
2022-10-19T21:22:01.613Z,7.25
2022-10-19T21:24:32.533Z,11.80
2022-10-19T21:27:09.005Z,12.32
2022-10-19T21:29:36.771Z,7.00
2022-10-19T21:32:03.994Z,6.40
2022-10-19T21:34:31.803Z,11.98
2022-10-19T21:36:58.965Z,8.52
2022-10-19T21:39:25.563Z,7.78
2022-10-19T21:41:52.319Z,9.32
2022-10-19T21:44:19.404Z,8.00
2022-10-19T21:46:47.928Z,12.23
2022-10-19T21:49:15.273Z,9.70
2022-10-19T21:51:53.850Z,11.95
2022-10-19T21:54:24.782Z,9.32
2022-10-19T21:56:51.649Z,8.63
2022-10-19T21:59:18.382Z,6.65
2022-10-19T22:01:45.094Z,6.95
2022-10-19T22:04:17.335Z,8.45
2022-10-19T22:06:44.573Z,8.18
2022-10-19T22:09:15.211Z,9.07
2022-10-19T22:11:41.935Z,6.80
2022-10-19T22:14:10.137Z,7.10
2022-10-19T22:16:36.991Z,9.07
2022-10-19T22:19:05.576Z,7.43
2022-10-19T22:21:33.800Z,7.45
2022-10-19T22:24:03.686Z,7.05
2022-10-19T22:26:36.762Z,6.22
2022-10-19T22:29:05.031Z,7.22
2022-10-19T22:31:32.902Z,8.75
2022-10-19T22:34:05.534Z,6.25
2022-10-19T22:36:32.331Z,6.90
2022-10-19T22:38:58.952Z,8.25
2022-10-19T22:41:25.607Z,5.72
2022-10-19T22:43:52.234Z,4.65
2022-10-19T22:46:18.841Z,6.00
2022-10-19T22:48:45.489Z,7.28
2022-10-19T22:51:12.165Z,6.68
2022-10-19T22:53:38.747Z,6.47
2022-10-19T22:56:05.790Z,13.45
2022-10-19T22:58:32.428Z,8.90
2022-10-19T23:01:03.452Z,10.07
2022-10-19T23:03:30.139Z,12.07
2022-10-19T23:05:56.923Z,11.88
2022-10-19T23:08:23.997Z,10.48
2022-10-19T23:10:50.567Z,7.20
2022-10-19T23:13:17.953Z,7.03
2022-10-19T23:15:45.048Z,5.43
2022-10-19T23:18:12.121Z,5.47
2022-10-19T23:20:38.726Z,6.30
2022-10-19T23:23:05.478Z,7.82
2022-10-19T23:28:03.553Z,8.13
2022-10-19T23:30:30.134Z,6.25
2022-10-19T23:32:56.762Z,8.73
2022-10-19T23:35:23.383Z,6.75
2022-10-19T23:37:49.970Z,11.93
2022-10-19T23:40:16.643Z,9.45
2022-10-19T23:42:43.170Z,10.85
2022-10-19T23:45:10.309Z,9.80
2022-10-19T23:47:37.184Z,8.82
2022-10-19T23:50:04.366Z,11.10
2022-10-19T23:52:30.922Z,9.75
2022-10-19T23:54:57.577Z,9.85
2022-10-19T23:57:24.134Z,31.48
2022-10-19T23:59:50.838Z,13.25
